Time;durP1;ratioP1;P1;durP2;ratioP2;P2;SDS_P1;SDS_P2;PMS_P1;PMS_P2;Temp;Humidity;BMP_temperature;BMP_pressure;BME280_temperature;BME280_humidity;BME280_pressure;Samples;Min_cycle;Max_cycle;Signal;HPM_P1;HPM_P2
2022/08/05 00:01:13;;;;;;;0.20;0.10;;;;;;;;;;6241258;22;20012;-85
2022/08/05 00:03:40;;;;;;;0.20;0.10;;;;;;;;;;6268098;22;20061;-84
2022/08/05 00:06:09;;;;;;;0.20;0.10;;;;;;;;;;6241349;22;20115;-85
2022/08/05 00:08:35;;;;;;;0.20;0.10;;;;;;;;;;6239954;22;20011;-86
2022/08/05 00:11:02;;;;;;;0.20;0.10;;;;;;;;;;6261439;22;20015;-85
2022/08/05 00:13:32;;;;;;;0.20;0.10;;;;;;;;;;6285401;22;20098;-85
2022/08/05 00:15:58;;;;;;;0.20;0.10;;;;;;;;;;6284773;22;20019;-84
2022/08/05 00:18:24;;;;;;;0.20;0.10;;;;;;;;;;6309828;22;20026;-84
2022/08/05 00:20:51;;;;;;;0.20;0.10;;;;;;;;;;6258870;22;20011;-84
2022/08/05 00:23:19;;;;;;;0.20;0.10;;;;;;;;;;6287010;22;20019;-85
2022/08/05 00:25:54;;;;;;;0.20;0.10;;;;;;;;;;6285525;22;20015;-85
2022/08/05 00:28:23;;;;;;;0.20;0.10;;;;;;;;;;6286570;22;20026;-86
2022/08/05 00:30:49;;;;;;;0.20;0.00;;;;;;;;;;6258482;22;20026;-85
2022/08/05 00:33:21;;;;;;;0.20;0.10;;;;;;;;;;6280200;22;20015;-84
2022/08/05 00:35:47;;;;;;;;;;;;;;;;;;6290885;22;20100;-85
2022/08/05 00:38:13;;;;;;;0.20;0.10;;;;;;;;;;6266423;22;19918;-86
2022/08/05 00:40:58;;;;;;;0.20;0.10;;;;;;;;;;6267134;22;20019;-86
2022/08/05 00:43:25;;;;;;;0.20;0.10;;;;;;;;;;6291674;22;20517;-86
2022/08/05 00:45:51;;;;;;;0.20;0.10;;;;;;;;;;6293842;22;20023;-85
2022/08/05 00:48:18;;;;;;;0.20;0.10;;;;;;;;;;6295171;22;20444;-85
2022/08/05 00:50:45;;;;;;;0.20;0.10;;;;;;;;;;6294031;22;20401;-84
2022/08/05 00:53:11;;;;;;;0.20;0.10;;;;;;;;;;6269297;22;20154;-85
2022/08/05 00:55:38;;;;;;;0.20;0.10;;;;;;;;;;6295406;22;20419;-85
2022/08/05 00:58:07;;;;;;;0.20;0.10;;;;;;;;;;6270198;22;20019;-85
2022/08/05 01:00:35;;;;;;;0.20;0.10;;;;;;;;;;6269774;22;20026;-85
2022/08/05 01:03:01;;;;;;;0.20;0.10;;;;;;;;;;6295527;22;20094;-85
2022/08/05 01:05:31;;;;;;;0.20;0.10;;;;;;;;;;6270747;22;20620;-85
2022/08/05 01:07:57;;;;;;;0.20;0.10;;;;;;;;;;6267860;22;20510;-84
2022/08/05 01:10:28;;;;;;;0.20;0.10;;;;;;;;;;6268489;22;20023;-85
2022/08/05 01:12:55;;;;;;;1.13;0.55;;;;;;;;;;6294454;22;20019;-85
2022/08/05 01:15:25;;;;;;;0.20;0.10;;;;;;;;;;6290913;22;20804;-86
2022/08/05 01:18:01;;;;;;;0.20;0.10;;;;;;;;;;6288676;22;20348;-85
2022/08/05 01:20:52;;;;;;;;;;;;;;;;;;;;;
2022/08/05 01:23:22;;;;;;;0.20;0.10;;;;;;;;;;6285417;22;20022;-84
2022/08/05 01:25:53;;;;;;;0.20;0.10;;;;;;;;;;6285659;22;20053;-85
2022/08/05 01:28:32;;;;;;;0.20;0.10;;;;;;;;;;6283831;22;20118;-85
2022/08/05 01:31:04;;;;;;;0.20;0.10;;;;;;;;;;6287989;22;20358;-85
2022/08/05 01:33:33;;;;;;;0.20;0.10;;;;;;;;;;6286486;22;20022;-85
2022/08/05 01:36:01;;;;;;;0.68;0.43;;;;;;;;;;6283878;22;20012;-84
2022/08/05 01:38:27;;;;;;;0.20;0.10;;;;;;;;;;6288584;22;20011;-85
2022/08/05 01:40:53;;;;;;;0.20;0.10;;;;;;;;;;6258677;22;20019;-85
2022/08/05 01:43:20;;;;;;;0.20;0.10;;;;;;;;;;6285223;22;20106;-84
2022/08/05 01:45:46;;;;;;;0.20;0.10;;;;;;;;;;6290562;22;20447;-85
2022/08/05 01:48:13;;;;;;;0.20;0.10;;;;;;;;;;6270645;22;20047;-85
2022/08/05 01:50:40;;;;;;;0.20;0.10;;;;;;;;;;6293530;22;20026;-85
2022/08/05 01:53:09;;;;;;;0.20;0.10;;;;;;;;;;6269085;22;20015;-84
2022/08/05 01:55:39;;;;;;;0.20;0.10;;;;;;;;;;6289881;22;20502;-87
2022/08/05 01:58:13;;;;;;;0.20;0.10;;;;;;;;;;6291015;22;20018;-86
2022/08/05 02:00:46;;;;;;;0.20;0.10;;;;;;;;;;6292380;22;20027;-83
2022/08/05 02:03:24;;;;;;;0.20;0.10;;;;;;;;;;6293606;22;20011;-86
2022/08/05 02:05:52;;;;;;;0.20;0.10;;;;;;;;;;6294377;22;20090;-85
2022/08/05 02:08:18;;;;;;;0.20;0.10;;;;;;;;;;6295457;22;20543;-87
2022/08/05 02:35:36;;;;;;;;;;;;;;;;;;;;;
2022/08/05 02:41:38;;;;;;;0.30;0.30;;;;;;;;;;6283380;22;20118;-86
2022/08/05 02:51:36;;;;;;;0.20;0.10;;;;;;;;;;6020980;23;20516;-85
2022/08/05 03:48:28;;;;;;;0.20;0.10;;;;;;;;;;5865404;24;20092;-86
2022/08/05 04:27:43;;;;;;;0.20;0.10;;;;;;;;;;6329077;22;20019;-86
2022/08/05 04:37:35;;;;;;;;;;;;;;;;;;;;;
2022/08/05 04:51:16;;;;;;;;;;;;;;;;;;;;;
2022/08/05 05:08:01;;;;;;;0.20;0.10;;;;;;;;;;6000026;23;20023;-86
2022/08/05 05:10:40;;;;;;;;;;;;;;;;;;;;;
2022/08/05 05:16:45;;;;;;;0.20;0.10;;;;;;;;;;5971085;24;20505;-86
2022/08/05 05:19:11;;;;;;;0.20;0.10;;;;;;;;;;6030402;23;20015;-85
2022/08/05 05:21:52;;;;;;;0.20;0.10;;;;;;;;;;6003780;23;20044;-85
2022/08/05 05:24:20;;;;;;;0.50;0.20;;;;;;;;;;6123236;23;21052;-85
2022/08/05 05:53:57;;;;;;;0.20;0.10;;;;;;;;;;6301900;22;20103;-86
2022/08/05 06:09:39;;;;;;;0.30;0.20;;;;;;;;;;6205560;23;20019;-85
2022/08/05 06:21:58;;;;;;;0.20;0.10;;;;;;;;;;6150864;23;20079;-86
2022/08/05 06:28:30;;;;;;;0.20;0.10;;;;;;;;;;6215620;23;20024;-85
2022/08/05 06:55:46;;;;;;;0.20;0.10;;;;;;;;;;5875658;24;20033;-85
2022/08/05 07:05:36;;;;;;;0.20;0.10;;;;;;;;;;6298515;22;20118;-86
2022/08/05 07:11:59;;;;;;;;;;;;;;;;;;;;;
2022/08/05 07:24:27;;;;;;;0.20;0.08;;;;;;;;;;6301610;22;20051;-86
2022/08/05 07:31:05;;;;;;;0.20;0.10;;;;;;;;;;6215446;22;20027;-85
2022/08/05 07:34:06;;;;;;;0.20;0.10;;;;;;;;;;6219555;22;20016;-86
2022/08/05 07:41:09;;;;;;;0.20;0.10;;;;;;;;;;6067036;23;20023;-86
2022/08/05 07:44:22;;;;;;;0.20;0.10;;;;;;;;;;6002766;23;20524;-86
2022/08/05 07:56:44;;;;;;;0.20;0.10;;;;;;;;;;5866598;24;20020;-86
2022/08/05 08:07:19;;;;;;;0.20;0.10;;;;;;;;;;5865642;24;20033;-86
2022/08/05 08:09:49;;;;;;;0.20;0.10;;;;;;;;;;5894936;24;20054;-86
2022/08/05 08:18:42;;;;;;;0.20;0.10;;;;;;;;;;6264450;22;20030;-85
2022/08/05 08:21:08;;;;;;;0.20;0.10;;;;;;;;;;6243992;22;20463;-86
2022/08/05 08:23:34;;;;;;;0.20;0.10;;;;;;;;;;6241452;22;20011;-87
2022/08/05 08:26:00;;;;;;;0.20;0.10;;;;;;;;;;6267835;22;20565;-86
2022/08/05 08:28:26;;;;;;;0.20;0.10;;;;;;;;;;6242484;22;20012;-87
2022/08/05 08:31:16;;;;;;;0.20;0.10;;;;;;;;;;6264752;22;20114;-87
2022/08/05 08:34:09;;;;;;;0.20;0.10;;;;;;;;;;6266422;22;20012;-89
2022/08/05 08:36:42;;;;;;;0.20;0.10;;;;;;;;;;6239629;22;20012;-87
2022/08/05 08:39:16;;;;;;;0.20;0.10;;;;;;;;;;6239428;22;20011;-85
2022/08/05 08:41:47;;;;;;;0.22;0.20;;;;;;;;;;6263629;22;20043;-86
2022/08/05 08:44:16;;;;;;;0.20;0.10;;;;;;;;;;6265908;22;20067;-86
2022/08/05 08:46:43;;;;;;;0.20;0.10;;;;;;;;;;6269379;22;20455;-87
2022/08/05 08:49:15;;;;;;;0.20;0.10;;;;;;;;;;6240620;22;20019;-86
2022/08/05 08:51:42;;;;;;;0.20;0.10;;;;;;;;;;6239749;22;20047;-87
2022/08/05 08:54:10;;;;;;;0.20;0.10;;;;;;;;;;6263445;22;20061;-86
2022/08/05 08:56:38;;;;;;;0.20;0.10;;;;;;;;;;6263748;22;20459;-85
2022/08/05 08:59:10;;;;;;;0.20;0.10;;;;;;;;;;6263684;22;20055;-87
2022/08/05 09:01:38;;;;;;;0.20;0.10;;;;;;;;;;6265184;22;20012;-89
2022/08/05 09:04:05;;;;;;;0.20;0.10;;;;;;;;;;6265602;22;20342;-86
2022/08/05 09:06:31;;;;;;;0.20;0.10;;;;;;;;;;6239285;22;20094;-86
2022/08/05 09:09:01;;;;;;;0.20;0.10;;;;;;;;;;6269487;22;20039;-85
2022/08/05 09:11:32;;;;;;;0.20;0.10;;;;;;;;;;6268087;22;20012;-90
2022/08/05 09:13:59;;;;;;;0.20;0.10;;;;;;;;;;6267719;22;20019;-86
2022/08/05 09:16:25;;;;;;;0.20;0.10;;;;;;;;;;6270200;22;20011;-87
2022/08/05 09:18:54;;;;;;;0.20;0.10;;;;;;;;;;6244857;22;20019;-86
2022/08/05 09:21:21;;;;;;;0.20;0.10;;;;;;;;;;6268138;22;20015;-87
2022/08/05 09:24:02;;;;;;;0.20;0.10;;;;;;;;;;6267543;22;20018;-87
2022/08/05 09:26:31;;;;;;;0.20;0.10;;;;;;;;;;6266755;22;20106;-85
2022/08/05 09:29:03;;;;;;;0.20;0.10;;;;;;;;;;6266647;22;20027;-85
2022/08/05 09:31:30;;;;;;;0.20;0.10;;;;;;;;;;6239536;22;20016;-86
2022/08/05 09:33:57;;;;;;;0.20;0.10;;;;;;;;;;6265908;22;20018;-86
2022/08/05 09:36:27;;;;;;;0.20;0.10;;;;;;;;;;6267671;22;20016;-87
2022/08/05 09:39:01;;;;;;;0.20;0.10;;;;;;;;;;6266779;22;20642;-86
2022/08/05 09:41:27;;;;;;;0.20;0.10;;;;;;;;;;6264964;22;20019;-87
2022/08/05 09:43:54;;;;;;;0.20;0.10;;;;;;;;;;6268368;22;20035;-88
2022/08/05 09:46:26;;;;;;;0.20;0.10;;;;;;;;;;6267217;22;20541;-86
2022/08/05 09:48:53;;;;;;;0.20;0.10;;;;;;;;;;6269283;22;20020;-87
2022/08/05 09:51:36;;;;;;;0.20;0.10;;;;;;;;;;6241040;22;20372;-87
2022/08/05 09:54:05;;;;;;;0.20;0.10;;;;;;;;;;6263867;22;20011;-88
2022/08/05 09:56:35;;;;;;;0.20;0.10;;;;;;;;;;6265190;22;20026;-88
2022/08/05 09:59:06;;;;;;;0.20;0.10;;;;;;;;;;6238057;22;20321;-88
2022/08/05 10:01:40;;;;;;;0.20;0.10;;;;;;;;;;6264093;22;20019;-86
2022/08/05 10:04:12;;;;;;;0.20;0.10;;;;;;;;;;6266138;22;20039;-87
2022/08/05 10:06:44;;;;;;;0.20;0.10;;;;;;;;;;6265692;22;20015;-86
2022/08/05 10:09:14;;;;;;;0.20;0.10;;;;;;;;;;6265604;22;20016;-88
2022/08/05 10:11:46;;;;;;;0.20;0.10;;;;;;;;;;6264480;22;20461;-86
2022/08/05 10:14:45;;;;;;;0.20;0.10;;;;;;;;;;6243278;22;20007;-89
2022/08/05 10:17:18;;;;;;;0.20;0.10;;;;;;;;;;6248196;22;20019;-87
2022/08/05 10:19:47;;;;;;;0.20;0.10;;;;;;;;;;6267207;22;20020;-86
2022/08/05 10:22:14;;;;;;;0.20;0.10;;;;;;;;;;6267233;22;20087;-88
2022/08/05 10:25:13;;;;;;;0.20;0.10;;;;;;;;;;6267448;22;20015;-85
2022/08/05 10:27:43;;;;;;;0.20;0.10;;;;;;;;;;6243817;22;20022;-88
2022/08/05 10:30:15;;;;;;;0.20;0.10;;;;;;;;;;6268293;22;20391;-89
2022/08/05 10:32:41;;;;;;;0.20;0.10;;;;;;;;;;6263839;22;20014;-87
2022/08/05 10:35:08;;;;;;;0.20;0.10;;;;;;;;;;6239763;22;20058;-85
2022/08/05 10:37:43;;;;;;;0.20;0.10;;;;;;;;;;6290335;22;20015;-89
2022/08/05 10:40:21;;;;;;;0.20;0.10;;;;;;;;;;6238890;22;20403;-89
2022/08/05 10:43:35;;;;;;;0.20;0.10;;;;;;;;;;6290313;22;20022;-86
2022/08/05 10:46:12;;;;;;;0.20;0.10;;;;;;;;;;6124424;23;20019;-88
2022/08/05 10:48:42;;;;;;;0.20;0.10;;;;;;;;;;6250793;22;20097;-87
2022/08/05 10:51:12;;;;;;;0.20;0.10;;;;;;;;;;6265195;22;20020;-88
2022/08/05 10:53:59;;;;;;;0.20;0.10;;;;;;;;;;6264014;22;20337;-89
2022/08/05 10:56:48;;;;;;;0.20;0.10;;;;;;;;;;6239014;22;20016;-90
2022/08/05 10:59:26;;;;;;;0.20;0.10;;;;;;;;;;6196914;23;20024;-86
2022/08/05 11:02:12;;;;;;;0.20;0.10;;;;;;;;;;6180834;23;20028;-83
2022/08/05 11:04:54;;;;;;;0.20;0.10;;;;;;;;;;6207451;23;20653;-88
2022/08/05 11:07:20;;;;;;;0.20;0.10;;;;;;;;;;6179980;23;20012;-89
2022/08/05 11:10:10;;;;;;;0.20;0.10;;;;;;;;;;6181832;23;20099;-89
2022/08/05 11:12:58;;;;;;;;;;;;;;;;;;;;;
2022/08/05 11:15:46;;;;;;;0.20;0.10;;;;;;;;;;6205413;23;20011;-85
2022/08/05 11:18:25;;;;;;;0.20;0.10;;;;;;;;;;6180831;23;20016;-86
2022/08/05 11:20:54;;;;;;;0.20;0.10;;;;;;;;;;6230544;23;20016;-86
2022/08/05 11:23:27;;;;;;;0.20;0.10;;;;;;;;;;6183281;23;20467;-91
2022/08/05 11:26:09;;;;;;;0.20;0.10;;;;;;;;;;6178237;23;20027;-88
2022/08/05 11:28:38;;;;;;;0.20;0.10;;;;;;;;;;6176140;23;20015;-90
2022/08/05 11:31:20;;;;;;;0.20;0.10;;;;;;;;;;6180157;23;20353;-87
2022/08/05 11:33:46;;;;;;;0.20;0.10;;;;;;;;;;6205336;23;20034;-87
2022/08/05 11:36:38;;;;;;;0.20;0.10;;;;;;;;;;6199753;22;20039;-87
2022/08/05 11:39:08;;;;;;;0.20;0.10;;;;;;;;;;6263251;22;20660;-83
2022/08/05 11:41:37;;;;;;;0.20;0.10;;;;;;;;;;6261648;22;20459;-86
2022/08/05 11:44:05;;;;;;;0.20;0.10;;;;;;;;;;6264676;22;20534;-86
2022/08/05 11:49:05;;;;;;;0.20;0.10;;;;;;;;;;6293483;22;20023;-88
2022/08/05 11:51:31;;;;;;;0.20;0.10;;;;;;;;;;6267925;22;20069;-85
2022/08/05 11:54:03;;;;;;;0.20;0.10;;;;;;;;;;6268761;22;20026;-87
2022/08/05 11:57:03;;;;;;;0.20;0.10;;;;;;;;;;6262631;22;20240;-87
2022/08/05 11:59:35;;;;;;;0.20;0.10;;;;;;;;;;6236922;22;20026;-86
2022/08/05 12:02:23;;;;;;;0.20;0.00;;;;;;;;;;6220406;22;20019;-81
2022/08/05 12:04:49;;;;;;;0.20;0.10;;;;;;;;;;6266738;22;20090;-83
2022/08/05 12:07:16;;;;;;;0.20;0.10;;;;;;;;;;6238823;22;20076;-82
2022/08/05 12:09:45;;;;;;;0.20;0.10;;;;;;;;;;6265609;22;20075;-85
2022/08/05 12:12:11;;;;;;;0.20;0.10;;;;;;;;;;6274839;22;20011;-84
2022/08/05 12:14:43;;;;;;;0.20;0.10;;;;;;;;;;6258817;22;20016;-86
2022/08/05 12:17:13;;;;;;;0.20;0.10;;;;;;;;;;6262639;22;20091;-84
2022/08/05 12:19:53;;;;;;;0.20;0.10;;;;;;;;;;6260866;22;20415;-83
2022/08/05 12:22:51;;;;;;;0.20;0.10;;;;;;;;;;6261665;22;20023;-84
2022/08/05 12:25:17;;;;;;;0.20;0.10;;;;;;;;;;6260699;22;20027;-83
2022/08/05 12:27:47;;;;;;;0.20;0.10;;;;;;;;;;6260545;22;20429;-84
2022/08/05 12:30:26;;;;;;;;;;;;;;;;;;;;;
2022/08/05 12:39:09;;;;;;;0.20;0.10;;;;;;;;;;6257921;22;20460;-84
2022/08/05 12:41:38;;;;;;;0.20;0.10;;;;;;;;;;6260871;22;20257;-84
2022/08/05 12:44:25;;;;;;;0.20;0.10;;;;;;;;;;6238417;22;20455;-84
2022/08/05 12:47:11;;;;;;;0.20;0.10;;;;;;;;;;6237057;22;20519;-88
2022/08/05 12:49:51;;;;;;;;;;;;;;;;;;;;;
2022/08/05 12:52:20;;;;;;;0.20;0.10;;;;;;;;;;6263660;22;20019;-84
2022/08/05 12:57:48;;;;;;;0.20;0.10;;;;;;;;;;6261143;22;20023;-85
2022/08/05 13:00:43;;;;;;;0.20;0.10;;;;;;;;;;6265214;22;20020;-85
2022/08/05 13:03:10;;;;;;;0.20;0.10;;;;;;;;;;6237320;22;20527;-84
2022/08/05 13:05:45;;;;;;;0.20;0.10;;;;;;;;;;6240121;22;20015;-87
2022/08/05 13:08:17;;;;;;;0.20;0.10;;;;;;;;;;6266714;22;20031;-86
2022/08/05 13:10:52;;;;;;;0.20;0.10;;;;;;;;;;6265837;22;20020;-84
2022/08/05 13:13:29;;;;;;;0.20;0.10;;;;;;;;;;6259676;22;20467;-84
2022/08/05 13:16:02;;;;;;;0.20;0.10;;;;;;;;;;6264460;22;20066;-85
2022/08/05 13:18:37;;;;;;;0.20;0.10;;;;;;;;;;6263788;22;20007;-84
2022/08/05 13:21:09;;;;;;;0.20;0.10;;;;;;;;;;6265833;22;20016;-85
2022/08/05 13:23:38;;;;;;;0.20;0.10;;;;;;;;;;6240721;22;20058;-85
2022/08/05 13:26:07;;;;;;;0.20;0.10;;;;;;;;;;6265793;22;20016;-86
2022/08/05 13:28:36;;;;;;;0.20;0.10;;;;;;;;;;6238237;22;20024;-84
2022/08/05 13:31:02;;;;;;;0.20;0.10;;;;;;;;;;6253839;22;20047;-86
2022/08/05 13:33:34;;;;;;;0.20;0.10;;;;;;;;;;6263879;22;20503;-84
2022/08/05 13:36:21;;;;;;;0.20;0.10;;;;;;;;;;6265083;22;20015;-85
2022/08/05 13:38:47;;;;;;;0.20;0.10;;;;;;;;;;6239305;22;20448;-83
2022/08/05 13:41:16;;;;;;;0.20;0.10;;;;;;;;;;6260083;22;20407;-84
2022/08/05 13:44:03;;;;;;;0.20;0.10;;;;;;;;;;6264775;22;20028;-83
2022/08/05 13:46:32;;;;;;;0.20;0.10;;;;;;;;;;6243440;22;20128;-85
2022/08/05 13:49:20;;;;;;;0.20;0.10;;;;;;;;;;6266214;22;20101;-84
2022/08/05 13:51:47;;;;;;;0.20;0.10;;;;;;;;;;6265639;22;20129;-83
2022/08/05 13:54:19;;;;;;;0.20;0.10;;;;;;;;;;6266288;22;20047;-85
2022/08/05 13:57:02;;;;;;;0.20;0.10;;;;;;;;;;6264119;22;20247;-82
2022/08/05 13:59:28;;;;;;;0.20;0.10;;;;;;;;;;6264652;22;20047;-83
2022/08/05 14:02:06;;;;;;;0.20;0.10;;;;;;;;;;6238758;22;20118;-86
2022/08/05 14:07:56;;;;;;;0.20;0.10;;;;;;;;;;6239636;22;20024;-84
2022/08/05 14:10:37;;;;;;;0.20;0.10;;;;;;;;;;6240767;22;20016;-87
2022/08/05 14:13:45;;;;;;;0.20;0.10;;;;;;;;;;6236583;22;20883;-83
2022/08/05 14:16:21;;;;;;;;;;;;;;;;;;;;;
2022/08/05 14:18:54;;;;;;;0.20;0.10;;;;;;;;;;6241608;22;20011;-85
2022/08/05 14:23:54;;;;;;;0.20;0.10;;;;;;;;;;6208876;23;20028;-87
2022/08/05 14:26:52;;;;;;;0.20;0.10;;;;;;;;;;6158358;23;20017;-84
2022/08/05 14:32:32;;;;;;;0.20;0.10;;;;;;;;;;6225464;23;20020;-85
2022/08/05 14:35:09;;;;;;;0.20;0.10;;;;;;;;;;6256211;22;20467;-83
2022/08/05 14:37:38;;;;;;;0.20;0.10;;;;;;;;;;6261346;22;20069;-85
2022/08/05 14:40:13;;;;;;;0.20;0.10;;;;;;;;;;6267696;22;20011;-88
2022/08/05 14:42:45;;;;;;;0.20;0.10;;;;;;;;;;6278707;22;20462;-88
2022/08/05 14:45:42;;;;;;;0.20;0.10;;;;;;;;;;6285865;22;20015;-88
2022/08/05 14:51:43;;;;;;;;;;;;;;;;;;;;;
2022/08/05 14:54:18;;;;;;;0.20;0.10;;;;;;;;;;6271010;22;21411;-85
2022/08/05 14:56:50;;;;;;;0.20;0.10;;;;;;;;;;6269650;22;20016;-87
2022/08/05 14:59:22;;;;;;;0.20;0.10;;;;;;;;;;6268898;22;20011;-88
2022/08/05 15:02:03;;;;;;;0.20;0.10;;;;;;;;;;6269089;22;20022;-87
2022/08/05 15:04:35;;;;;;;0.20;0.10;;;;;;;;;;6262655;22;20022;-85
2022/08/05 15:07:12;;;;;;;0.20;0.10;;;;;;;;;;6266939;22;20016;-87
2022/08/05 15:09:44;;;;;;;0.20;0.10;;;;;;;;;;6266112;22;20352;-89
2022/08/05 15:12:13;;;;;;;0.20;0.10;;;;;;;;;;6240254;22;20015;-86
2022/08/05 15:14:42;;;;;;;0.20;0.10;;;;;;;;;;6264687;22;20133;-89
2022/08/05 15:17:11;;;;;;;0.20;0.10;;;;;;;;;;6262940;22;20007;-83
2022/08/05 15:19:37;;;;;;;0.20;0.10;;;;;;;;;;6256413;22;20038;-82
2022/08/05 15:22:13;;;;;;;;;;;;;;;;;;;;;
2022/08/05 15:24:59;;;;;;;0.20;0.10;;;;;;;;;;6264046;22;20019;-86
2022/08/05 15:27:30;;;;;;;;;;;;;;;;;;6265952;22;20452;-89
2022/08/05 15:29:59;;;;;;;0.20;0.10;;;;;;;;;;6266482;22;19925;-86
2022/08/05 15:32:27;;;;;;;0.20;0.10;;;;;;;;;;6240407;22;20019;-84
2022/08/05 15:34:53;;;;;;;0.20;0.10;;;;;;;;;;6266545;22;20077;-84
2022/08/05 15:37:22;;;;;;;0.20;0.10;;;;;;;;;;6266609;22;20018;-86
2022/08/05 15:39:49;;;;;;;0.20;0.10;;;;;;;;;;6239910;22;20020;-87
2022/08/05 15:42:21;;;;;;;0.20;0.10;;;;;;;;;;6240772;22;20051;-87
2022/08/05 15:44:50;;;;;;;0.20;0.10;;;;;;;;;;6267072;22;20016;-90
2022/08/05 15:47:26;;;;;;;0.20;0.10;;;;;;;;;;6242620;22;20024;-88
2022/08/05 15:49:52;;;;;;;0.20;0.10;;;;;;;;;;6264644;22;20102;-88
2022/08/05 15:52:19;;;;;;;0.20;0.10;;;;;;;;;;6241949;22;20019;-88
2022/08/05 15:54:48;;;;;;;0.20;0.10;;;;;;;;;;6268170;22;20012;-86
2022/08/05 15:57:20;;;;;;;0.20;0.10;;;;;;;;;;6243571;22;20460;-86
2022/08/05 15:59:46;;;;;;;0.20;0.10;;;;;;;;;;6268624;22;20062;-85
2022/08/05 16:02:12;;;;;;;0.20;0.10;;;;;;;;;;6215500;22;20026;-85
2022/08/05 16:04:42;;;;;;;0.20;0.10;;;;;;;;;;6264364;22;20016;-88
2022/08/05 16:07:11;;;;;;;0.20;0.10;;;;;;;;;;6266721;22;20491;-88
2022/08/05 16:09:40;;;;;;;0.20;0.10;;;;;;;;;;6238023;22;20361;-86
2022/08/05 16:12:07;;;;;;;0.20;0.10;;;;;;;;;;6230514;22;20096;-86
2022/08/05 16:14:33;;;;;;;0.20;0.10;;;;;;;;;;6259444;22;20015;-86
2022/08/05 16:16:59;;;;;;;0.20;0.10;;;;;;;;;;6256668;22;20014;-85
2022/08/05 16:19:26;;;;;;;0.20;0.10;;;;;;;;;;6257608;22;20012;-86
2022/08/05 16:21:52;;;;;;;0.20;0.10;;;;;;;;;;6264948;22;20382;-84
2022/08/05 16:24:25;;;;;;;0.20;0.10;;;;;;;;;;6239269;22;20019;-88
2022/08/05 16:26:51;;;;;;;;;;;;;;;;;;6214390;22;20348;-90
2022/08/05 16:29:42;;;;;;;0.20;0.10;;;;;;;;;;6238422;22;19921;-86
2022/08/05 16:32:08;;;;;;;0.20;0.10;;;;;;;;;;6267550;22;20016;-85
2022/08/05 16:34:40;;;;;;;0.20;0.10;;;;;;;;;;6242763;22;20008;-89
2022/08/05 16:37:06;;;;;;;0.20;0.10;;;;;;;;;;6269689;22;20086;-87
2022/08/05 16:39:33;;;;;;;0.20;0.10;;;;;;;;;;6268951;22;20054;-85
2022/08/05 16:41:59;;;;;;;0.20;0.10;;;;;;;;;;6242800;22;20426;-86
2022/08/05 16:44:27;;;;;;;0.20;0.10;;;;;;;;;;6268941;22;20069;-87
2022/08/05 16:46:54;;;;;;;0.20;0.10;;;;;;;;;;6243051;22;20030;-82
2022/08/05 16:49:44;;;;;;;0.20;0.10;;;;;;;;;;6242795;22;20019;-87
2022/08/05 16:52:16;;;;;;;0.20;0.10;;;;;;;;;;6245753;22;20011;-89
2022/08/05 16:55:23;;;;;;;0.20;0.10;;;;;;;;;;6270431;22;20042;-88
2022/08/05 16:57:59;;;;;;;0.20;0.10;;;;;;;;;;6268918;22;20974;-85
2022/08/05 17:00:30;;;;;;;0.20;0.10;;;;;;;;;;6242773;22;20381;-89
2022/08/05 17:02:59;;;;;;;0.20;0.10;;;;;;;;;;6267733;22;20019;-86
2022/08/05 17:05:48;;;;;;;0.20;0.10;;;;;;;;;;6209894;22;20018;-86
2022/08/05 17:08:14;;;;;;;0.20;0.10;;;;;;;;;;6217107;22;20026;-83
2022/08/05 17:13:52;;;;;;;0.20;0.10;;;;;;;;;;6188909;23;20162;-83
2022/08/05 17:16:34;;;;;;;0.20;0.10;;;;;;;;;;6208229;23;20020;-87
2022/08/05 17:19:22;;;;;;;;;;;;;;;;;;;;;
2022/08/05 17:21:54;;;;;;;0.20;0.10;;;;;;;;;;6210038;23;19947;-86
2022/08/05 17:24:25;;;;;;;0.20;0.10;;;;;;;;;;6206891;22;20012;-86
2022/08/05 17:27:38;;;;;;;0.20;0.10;;;;;;;;;;6210071;23;20200;-87
2022/08/05 17:30:08;;;;;;;0.20;0.10;;;;;;;;;;6210753;23;20111;-86
2022/08/05 17:32:40;;;;;;;0.20;0.10;;;;;;;;;;6210784;23;20012;-87
2022/08/05 17:35:18;;;;;;;0.20;0.10;;;;;;;;;;6160827;23;20051;-88
2022/08/05 17:37:56;;;;;;;;;;;;;;;;;;;;;
2022/08/05 17:40:34;;;;;;;0.20;0.10;;;;;;;;;;6206274;23;20016;-84
2022/08/05 17:43:03;;;;;;;0.20;0.10;;;;;;;;;;6154596;23;20600;-88
2022/08/05 17:48:30;;;;;;;0.20;0.10;;;;;;;;;;6197962;23;20016;-85
2022/08/05 17:53:53;;;;;;;0.20;0.10;;;;;;;;;;6206559;23;20730;-88
2022/08/05 17:56:30;;;;;;;0.20;0.10;;;;;;;;;;6184098;23;20008;-85
2022/08/05 17:58:56;;;;;;;0.20;0.10;;;;;;;;;;6235334;23;20899;-86
2022/08/05 18:01:25;;;;;;;0.20;0.10;;;;;;;;;;6185072;23;20423;-87
2022/08/05 18:04:10;;;;;;;0.20;0.10;;;;;;;;;;6185632;23;20068;-88
2022/08/05 18:06:36;;;;;;;0.20;0.10;;;;;;;;;;6186985;23;20016;-88
2022/08/05 18:09:42;;;;;;;;;;;;;;;;;;;;;
2022/08/05 18:12:38;;;;;;;0.20;0.10;;;;;;;;;;6237981;22;20024;-87
2022/08/05 18:15:37;;;;;;;0.20;0.10;;;;;;;;;;6267526;22;20499;-87
2022/08/05 18:18:06;;;;;;;0.20;0.10;;;;;;;;;;6147368;23;20147;-84
2022/08/05 18:20:35;;;;;;;0.20;0.10;;;;;;;;;;6236517;22;20514;-89
2022/08/05 18:23:27;;;;;;;0.20;0.10;;;;;;;;;;6219035;22;20012;-86
2022/08/05 18:25:53;;;;;;;;;;;;;;;;;;6220781;22;20066;-89
2022/08/05 18:29:13;;;;;;;0.20;0.10;;;;;;;;;;6262603;22;19911;-88
2022/08/05 18:31:54;;;;;;;0.20;0.10;;;;;;;;;;6125711;23;20021;-87
2022/08/05 18:34:29;;;;;;;0.20;0.10;;;;;;;;;;6124970;23;20067;-84
2022/08/05 18:36:57;;;;;;;0.20;0.10;;;;;;;;;;6164261;23;20016;-84
2022/08/05 18:45:57;;;;;;;0.20;0.10;;;;;;;;;;6207425;23;20031;-85
2022/08/05 18:48:44;;;;;;;0.20;0.10;;;;;;;;;;6161816;23;20051;-85
2022/08/05 18:54:05;;;;;;;0.20;0.10;;;;;;;;;;6210819;23;20016;-88
2022/08/05 18:56:35;;;;;;;0.20;0.10;;;;;;;;;;6185516;23;21077;-83
2022/08/05 18:59:07;;;;;;;0.20;0.10;;;;;;;;;;6162246;23;20408;-87
2022/08/05 19:01:33;;;;;;;0.20;0.10;;;;;;;;;;6161523;23;20476;-84
2022/08/05 19:04:34;;;;;;;0.20;0.10;;;;;;;;;;6184291;23;20035;-84
2022/08/05 19:07:03;;;;;;;0.20;0.10;;;;;;;;;;6216035;22;20015;-87
2022/08/05 19:09:36;;;;;;;0.20;0.10;;;;;;;;;;6242833;22;20123;-88
2022/08/05 19:12:05;;;;;;;0.20;0.10;;;;;;;;;;6239135;22;20022;-88
2022/08/05 19:14:31;;;;;;;0.20;0.10;;;;;;;;;;6214735;22;20015;-86
2022/08/05 19:16:57;;;;;;;0.20;0.10;;;;;;;;;;6209334;22;20069;-85
2022/08/05 19:19:26;;;;;;;0.20;0.10;;;;;;;;;;6211334;22;20802;-85
2022/08/05 19:21:55;;;;;;;0.20;0.10;;;;;;;;;;6219167;22;20008;-85
2022/08/05 19:24:25;;;;;;;0.20;0.10;;;;;;;;;;6263931;22;20038;-86
2022/08/05 19:26:51;;;;;;;0.20;0.10;;;;;;;;;;6264149;22;20023;-84
2022/08/05 19:29:17;;;;;;;0.20;0.10;;;;;;;;;;6236191;22;20019;-84
2022/08/05 19:31:43;;;;;;;0.20;0.10;;;;;;;;;;6237682;22;20027;-84
2022/08/05 19:34:09;;;;;;;0.20;0.10;;;;;;;;;;6240283;22;20038;-83
2022/08/05 19:36:38;;;;;;;0.20;0.10;;;;;;;;;;6264288;22;20095;-85
2022/08/05 19:39:04;;;;;;;0.20;0.10;;;;;;;;;;6263749;22;20011;-84
2022/08/05 19:41:30;;;;;;;0.20;0.10;;;;;;;;;;6262755;22;20012;-85
2022/08/05 19:44:04;;;;;;;0.20;0.10;;;;;;;;;;6239962;22;20122;-84
2022/08/05 19:46:34;;;;;;;0.20;0.10;;;;;;;;;;6263488;22;20019;-83
2022/08/05 19:49:01;;;;;;;0.20;0.10;;;;;;;;;;6261353;22;20051;-85
2022/08/05 19:51:30;;;;;;;0.20;0.10;;;;;;;;;;6261236;22;20448;-84
2022/08/05 19:54:12;;;;;;;0.20;0.10;;;;;;;;;;6261685;22;20007;-85
2022/08/05 19:56:44;;;;;;;0.20;0.10;;;;;;;;;;6261770;22;20016;-84
2022/08/05 19:59:11;;;;;;;0.20;0.10;;;;;;;;;;6261170;22;20391;-84
2022/08/05 20:01:51;;;;;;;0.20;0.10;;;;;;;;;;6238392;22;20016;-84
2022/08/05 20:04:20;;;;;;;0.20;0.10;;;;;;;;;;6264621;22;20019;-85
2022/08/05 20:06:59;;;;;;;;;;;;;;;;;;;;;
2022/08/05 20:09:46;;;;;;;0.20;0.10;;;;;;;;;;6265154;22;20023;-86
2022/08/05 20:12:12;;;;;;;0.20;0.10;;;;;;;;;;6238414;22;20081;-85
2022/08/05 20:14:39;;;;;;;0.20;0.10;;;;;;;;;;6239363;22;20018;-85
2022/08/05 20:17:13;;;;;;;0.20;0.10;;;;;;;;;;6264277;22;20015;-85
2022/08/05 20:19:48;;;;;;;0.20;0.10;;;;;;;;;;6241917;22;20047;-85
2022/08/05 20:22:22;;;;;;;;;;;;;;;;;;6265721;22;20022;-85
2022/08/05 20:25:01;;;;;;;0.20;0.10;;;;;;;;;;6242289;22;19918;-85
2022/08/05 20:27:45;;;;;;;0.20;0.10;;;;;;;;;;6263813;22;20015;-85
2022/08/05 20:30:29;;;;;;;0.20;0.00;;;;;;;;;;6213786;22;20027;-85
2022/08/05 20:33:00;;;;;;;0.20;0.10;;;;;;;;;;6259922;22;20018;-85
2022/08/05 20:52:47;;;;;;;;;;;;;;;;;;;;;
2022/08/05 21:23:47;;;;;;;;;;;;;;;;;;;;;
2022/08/05 22:07:15;;;;;;;0.20;0.10;;;;;;;;;;6056523;23;20499;-84
2022/08/05 22:33:23;;;;;;;;;;;;;;;;;;;;;
2022/08/05 22:39:34;;;;;;;0.20;0.10;;;;;;;;;;6113283;23;20025;-84
2022/08/05 22:42:44;;;;;;;0.20;0.10;;;;;;;;;;6087639;23;20024;-83
2022/08/05 22:53:09;;;;;;;0.20;0.10;;;;;;;;;;5999529;23;20666;-82
2022/08/05 23:00:04;;;;;;;0.20;0.10;;;;;;;;;;5917138;24;20128;-84
2022/08/05 23:03:59;;;;;;;0.20;0.10;;;;;;;;;;5943377;24;20020;-84
2022/08/05 23:06:43;;;;;;;;;;;;;;;;;;;;;
2022/08/05 23:36:46;;;;;;;;;;;;;;;;;;;;;
2022/08/05 23:57:28;;;;;;;0.20;0.10;;;;;;;;;;6027951;23;20018;-83
